createdAt,value
2023-05-10T00:02:01.237Z,99498.13
2023-05-10T00:04:33.386Z,99505.50
2023-05-10T00:07:05.258Z,99518.34
2023-05-10T00:09:36.601Z,99511.78
2023-05-10T00:12:07.123Z,99507.72
2023-05-10T00:14:36.534Z,99515.69
2023-05-10T00:17:06.404Z,99518.66
2023-05-10T00:19:35.167Z,99520.34
2023-05-10T00:22:04.240Z,99515.41
2023-05-10T00:24:34.726Z,99518.03
2023-05-10T00:27:17.068Z,99524.63
2023-05-10T00:29:50.504Z,99524.88
2023-05-10T00:32:21.206Z,99538.13
2023-05-10T00:34:52.411Z,99525.34
2023-05-10T00:37:29.248Z,99526.88
2023-05-10T00:40:04.017Z,99528.28
2023-05-10T00:42:32.394Z,99516.53
2023-05-10T00:45:06.222Z,99535.41
2023-05-10T00:47:35.068Z,99548.13
2023-05-10T00:50:05.953Z,99534.19
2023-05-10T00:52:42.356Z,99546.25
2023-05-10T00:55:13.489Z,99552.25
2023-05-10T00:57:41.840Z,99554.72
2023-05-10T01:00:20.687Z,99555.88
2023-05-10T01:02:50.665Z,99543.78
2023-05-10T01:05:27.045Z,99556.03
2023-05-10T01:08:01.006Z,99550.38
2023-05-10T01:10:31.481Z,99549.13
2023-05-10T01:13:04.154Z,99551.25
2023-05-10T01:15:36.879Z,99550.66
2023-05-10T01:18:07.447Z,99559.59
2023-05-10T01:20:45.604Z,99546.56
2023-05-10T01:23:33.931Z,99557.50
2023-05-10T01:26:30.540Z,99563.00
2023-05-10T01:29:41.061Z,99568.41
2023-05-10T01:32:21.884Z,99562.00
2023-05-10T01:35:02.836Z,99561.63
2023-05-10T01:37:44.474Z,99566.75
2023-05-10T01:40:22.095Z,99567.63
2023-05-10T01:42:55.526Z,99570.84
2023-05-10T01:45:34.627Z,99571.63
2023-05-10T01:48:08.507Z,99578.75
2023-05-10T01:50:45.432Z,99581.47
2023-05-10T01:53:19.385Z,99592.56
2023-05-10T01:55:51.378Z,99597.25
2023-05-10T01:58:25.290Z,99580.13
2023-05-10T02:00:55.554Z,99593.84
2023-05-10T02:03:29.030Z,99564.75
2023-05-10T02:05:59.571Z,99595.03
2023-05-10T02:08:31.160Z,99587.91
2023-05-10T02:11:01.017Z,99594.06
2023-05-10T02:13:32.499Z,99588.09
2023-05-10T02:16:06.413Z,99599.06
2023-05-10T02:18:44.335Z,99596.19
2023-05-10T02:21:16.919Z,99598.22
2023-05-10T02:23:47.329Z,99598.78
2023-05-10T02:26:18.979Z,99606.03
2023-05-10T02:28:47.972Z,99602.19
2023-05-10T02:31:17.195Z,99618.56
2023-05-10T02:33:55.170Z,99615.03
2023-05-10T02:36:24.840Z,99610.69
2023-05-10T02:38:56.846Z,99620.31
2023-05-10T02:41:29.529Z,99620.63
2023-05-10T02:44:01.750Z,99611.16
2023-05-10T02:46:34.106Z,99620.16
2023-05-10T02:49:05.071Z,99613.50
2023-05-10T02:51:40.038Z,99614.94
2023-05-10T02:54:14.674Z,99627.41
2023-05-10T02:56:49.617Z,99611.22
2023-05-10T02:59:20.747Z,99622.63
2023-05-10T03:01:52.470Z,99621.06
2023-05-10T03:04:23.228Z,99616.13
2023-05-10T03:06:52.765Z,99624.31
2023-05-10T03:09:26.074Z,99618.13
2023-05-10T03:12:03.002Z,99622.28
2023-05-10T03:14:47.166Z,99629.03
2023-05-10T03:17:29.117Z,99625.50
2023-05-10T03:20:04.712Z,99619.13
2023-05-10T03:22:37.435Z,99630.50
2023-05-10T03:25:09.439Z,99629.31
2023-05-10T03:27:44.130Z,99634.25
2023-05-10T03:30:14.764Z,99641.47
2023-05-10T03:32:49.726Z,99636.84
2023-05-10T03:35:21.566Z,99633.53
2023-05-10T03:37:51.790Z,99644.59
2023-05-10T03:40:20.757Z,99638.78
2023-05-10T03:42:49.024Z,99633.50
2023-05-10T03:45:20.374Z,99636.50
2023-05-10T03:47:48.630Z,99648.00
2023-05-10T03:50:21.656Z,99653.25
2023-05-10T03:52:56.887Z,99656.69
2023-05-10T03:55:27.532Z,99660.31
2023-05-10T03:58:00.353Z,99662.91
2023-05-10T04:00:29.004Z,99658.16
2023-05-10T04:02:58.045Z,99654.81
2023-05-10T04:05:32.492Z,99652.78
2023-05-10T04:08:02.532Z,99658.06
2023-05-10T04:10:31.045Z,99646.84
2023-05-10T04:13:09.469Z,99653.63
2023-05-10T04:15:38.133Z,99656.06
2023-05-10T04:18:09.404Z,99661.41
2023-05-10T04:20:41.468Z,99656.59
2023-05-10T04:23:16.222Z,99653.41
2023-05-10T04:25:44.126Z,99655.47
2023-05-10T04:28:12.478Z,99655.41
2023-05-10T04:30:41.546Z,99652.19
2023-05-10T04:33:10.788Z,99659.91
2023-05-10T04:35:43.564Z,99663.69
2023-05-10T04:38:12.386Z,99655.50
2023-05-10T04:40:41.507Z,99654.44
2023-05-10T04:43:10.558Z,99674.78
2023-05-10T04:45:40.527Z,99669.72
2023-05-10T04:48:12.644Z,99668.81
2023-05-10T04:50:46.522Z,99683.41
2023-05-10T04:53:16.003Z,99661.59
2023-05-10T04:55:44.902Z,99681.25
2023-05-10T04:58:15.677Z,99680.63
2023-05-10T05:00:46.579Z,99673.34
2023-05-10T05:03:15.306Z,99672.09
2023-05-10T05:05:49.781Z,99669.72
2023-05-10T05:08:21.024Z,99682.66
2023-05-10T05:10:51.218Z,99680.09
2023-05-10T05:13:19.661Z,99676.16
2023-05-10T05:15:50.235Z,99683.03
2023-05-10T05:18:19.040Z,99681.03
2023-05-10T05:20:52.210Z,99688.63
2023-05-10T05:23:22.560Z,99685.75
2023-05-10T05:25:55.499Z,99695.03
2023-05-10T05:28:25.561Z,99695.09
2023-05-10T05:31:03.620Z,99699.09
2023-05-10T05:33:32.158Z,99699.06
2023-05-10T05:36:02.668Z,99700.66
2023-05-10T05:38:32.746Z,99699.53
2023-05-10T05:41:01.640Z,99701.38
2023-05-10T05:43:30.158Z,99703.47
2023-05-10T05:46:12.045Z,99696.91
2023-05-10T05:48:40.468Z,99703.25
2023-05-10T05:51:10.135Z,99704.13
2023-05-10T05:53:38.607Z,99703.13
2023-05-10T05:56:10.599Z,99706.16
2023-05-10T05:58:39.969Z,99718.38
2023-05-10T06:01:11.955Z,99724.38
2023-05-10T06:03:40.221Z,99727.66
2023-05-10T06:06:10.383Z,99727.75
2023-05-10T06:08:38.197Z,99726.41
2023-05-10T06:11:06.870Z,99733.72
2023-05-10T06:13:37.570Z,99732.81
2023-05-10T06:16:08.482Z,99694.22
2023-05-10T06:18:48.900Z,99738.50
2023-05-10T06:21:18.385Z,99742.38
2023-05-10T06:23:50.610Z,99738.53
2023-05-10T06:26:19.309Z,99725.63
2023-05-10T06:28:54.399Z,99742.88
2023-05-10T06:31:23.666Z,99745.41
2023-05-10T06:34:01.582Z,99746.19
2023-05-10T06:36:32.705Z,99750.56
2023-05-10T06:39:04.025Z,99744.34
2023-05-10T06:41:33.587Z,99745.44
2023-05-10T06:44:01.819Z,99751.53
2023-05-10T06:46:31.770Z,99754.69
2023-05-10T06:49:01.941Z,99757.53
2023-05-10T06:51:38.029Z,99744.78
2023-05-10T06:54:09.294Z,99753.44
2023-05-10T06:56:39.806Z,99763.09
2023-05-10T06:59:09.112Z,99759.59
2023-05-10T07:01:37.290Z,99754.47
2023-05-10T07:04:05.939Z,99754.09
2023-05-10T07:06:36.716Z,99765.06
2023-05-10T07:09:06.865Z,99758.88
2023-05-10T07:11:35.006Z,99763.97
2023-05-10T07:14:03.504Z,99765.34
2023-05-10T07:16:32.900Z,99764.06
2023-05-10T07:19:08.815Z,99770.09
2023-05-10T07:21:38.668Z,99780.09
2023-05-10T07:24:11.586Z,99767.97
2023-05-10T07:26:40.652Z,99772.41
2023-05-10T07:29:16.460Z,99775.88
2023-05-10T07:31:48.438Z,99780.97
2023-05-10T07:34:19.258Z,99773.00
2023-05-10T07:36:49.302Z,99772.94
2023-05-10T07:39:26.497Z,99767.78
2023-05-10T07:41:55.845Z,99777.09
2023-05-10T07:44:23.778Z,99779.53
2023-05-10T07:46:53.268Z,99769.69
2023-05-10T07:49:22.415Z,99791.19
2023-05-10T07:51:52.659Z,99781.44
2023-05-10T07:54:23.018Z,99789.50
2023-05-10T07:56:52.290Z,99786.34
2023-05-10T07:59:22.711Z,99789.34
2023-05-10T08:01:50.799Z,99789.91
2023-05-10T08:04:22.268Z,99780.41
2023-05-10T08:06:55.985Z,99787.78
2023-05-10T08:09:25.158Z,99783.38
2023-05-10T08:11:54.857Z,99782.88
2023-05-10T08:14:23.033Z,99786.97
2023-05-10T08:16:53.566Z,99785.31
2023-05-10T08:19:23.429Z,99798.75
2023-05-10T08:21:53.610Z,99764.75
2023-05-10T08:24:24.133Z,99793.25
2023-05-10T08:26:52.717Z,99796.19
2023-05-10T08:29:22.508Z,99777.78
2023-05-10T08:31:52.020Z,99782.28
2023-05-10T08:34:23.623Z,99795.09
2023-05-10T08:36:53.828Z,99789.53
2023-05-10T08:39:30.418Z,99802.31
2023-05-10T08:42:04.724Z,99805.13
2023-05-10T08:44:37.554Z,99793.59
2023-05-10T08:47:08.067Z,99800.09
2023-05-10T08:49:40.780Z,99808.97
2023-05-10T08:52:10.148Z,99798.88
2023-05-10T08:54:41.817Z,99786.97
2023-05-10T08:57:11.705Z,99797.81
2023-05-10T08:59:41.504Z,99806.88
2023-05-10T09:02:12.605Z,99806.34
2023-05-10T09:04:40.896Z,99804.34
2023-05-10T09:07:08.993Z,99813.94
2023-05-10T09:09:39.799Z,99817.28
2023-05-10T09:12:12.111Z,99814.63
2023-05-10T09:14:40.916Z,99811.28
2023-05-10T09:17:10.802Z,99823.91
2023-05-10T09:19:41.264Z,99819.56
2023-05-10T09:22:09.498Z,99824.09
2023-05-10T09:24:43.702Z,99805.97
2023-05-10T09:27:20.764Z,99807.25
2023-05-10T09:29:49.092Z,99830.66
2023-05-10T09:32:19.674Z,99834.47
2023-05-10T09:34:48.268Z,99835.88
2023-05-10T09:37:19.311Z,99818.72
2023-05-10T09:39:49.490Z,99819.31
2023-05-10T09:42:21.893Z,99819.00
2023-05-10T09:44:50.692Z,99814.25
2023-05-10T09:47:19.968Z,99817.97
2023-05-10T09:49:56.367Z,99840.38
2023-05-10T09:52:27.396Z,99841.25
2023-05-10T09:54:56.997Z,99827.84
2023-05-10T09:57:35.325Z,99835.56
2023-05-10T10:00:05.805Z,99845.34
2023-05-10T10:02:38.323Z,99837.09
2023-05-10T10:05:08.283Z,99844.03
2023-05-10T10:07:37.279Z,99844.59
2023-05-10T10:10:12.665Z,99842.19
2023-05-10T10:12:43.640Z,99847.50
2023-05-10T10:15:14.059Z,99852.75
2023-05-10T10:17:46.779Z,99853.91
2023-05-10T10:20:18.036Z,99849.78
2023-05-10T10:22:46.933Z,99857.41
2023-05-10T10:25:18.422Z,99856.66
2023-05-10T10:28:01.152Z,99858.28
2023-05-10T10:30:41.286Z,99867.59
2023-05-10T10:33:33.186Z,99871.38
2023-05-10T10:36:12.248Z,99876.53
2023-05-10T10:39:10.981Z,99873.41
2023-05-10T10:41:44.796Z,99871.41
2023-05-10T10:44:37.406Z,99866.81
2023-05-10T10:47:15.105Z,99857.41
2023-05-10T10:49:52.974Z,99877.59
2023-05-10T10:52:29.584Z,99866.44
2023-05-10T10:55:04.131Z,99869.81
2023-05-10T10:57:47.862Z,99865.97
2023-05-10T11:00:39.296Z,99869.16
2023-05-10T11:03:09.125Z,99872.28
2023-05-10T11:05:41.720Z,99878.66
2023-05-10T11:08:14.396Z,99873.09
2023-05-10T11:10:52.925Z,99871.91
2023-05-10T11:13:40.275Z,99847.59
2023-05-10T11:16:17.192Z,99865.69
2023-05-10T11:18:58.890Z,99863.75
2023-05-10T11:21:28.570Z,99864.81
2023-05-10T11:23:58.484Z,99861.13
2023-05-10T11:26:29.450Z,99864.56
2023-05-10T11:29:00.195Z,99858.94
2023-05-10T11:31:29.728Z,99872.16
2023-05-10T11:34:02.942Z,99855.28
2023-05-10T11:36:35.625Z,99860.94
2023-05-10T11:39:05.487Z,99856.72
2023-05-10T11:41:34.672Z,99865.03
2023-05-10T11:44:04.579Z,99868.09
2023-05-10T11:46:33.730Z,99855.16
2023-05-10T11:49:08.141Z,99873.88
2023-05-10T11:51:38.106Z,99867.84
2023-05-10T11:54:11.050Z,99870.81
2023-05-10T11:56:41.467Z,99880.91
2023-05-10T11:59:11.177Z,99883.25
2023-05-10T12:01:40.093Z,99892.31
2023-05-10T12:04:16.772Z,99895.28
2023-05-10T12:06:47.982Z,99896.44
2023-05-10T12:09:31.861Z,99885.44
2023-05-10T12:12:09.060Z,99901.38
2023-05-10T12:14:40.277Z,99898.06
2023-05-10T12:17:08.829Z,99902.47
2023-05-10T12:19:41.008Z,99889.59
2023-05-10T12:22:09.337Z,99900.28
2023-05-10T12:24:41.026Z,99898.38
2023-05-10T12:27:15.544Z,99893.94
2023-05-10T12:29:47.987Z,99896.13
2023-05-10T12:32:18.346Z,99902.81
2023-05-10T12:34:49.646Z,99890.41
2023-05-10T12:37:17.456Z,99882.75
2023-05-10T12:39:48.810Z,99894.38
2023-05-10T12:42:17.363Z,99889.81
2023-05-10T12:44:48.407Z,99880.03
2023-05-10T12:47:18.757Z,99874.75
2023-05-10T12:49:48.524Z,99884.41
2023-05-10T12:52:16.619Z,99879.56
2023-05-10T12:54:45.433Z,99892.53
2023-05-10T12:57:20.410Z,99880.66
2023-05-10T12:59:53.594Z,99882.97
2023-05-10T13:02:24.388Z,99872.28
2023-05-10T13:04:53.743Z,99883.22
2023-05-10T13:07:22.633Z,99881.84
2023-05-10T13:09:50.798Z,99880.00
2023-05-10T13:12:19.025Z,99874.25
2023-05-10T13:14:48.603Z,99881.28
2023-05-10T13:17:18.304Z,99877.00
2023-05-10T13:19:48.235Z,99866.78
2023-05-10T13:22:28.641Z,99865.19
2023-05-10T13:25:05.872Z,99879.47
2023-05-10T13:27:35.159Z,99859.69
2023-05-10T13:30:29.845Z,99889.47
2023-05-10T13:33:02.670Z,99878.06
2023-05-10T13:35:32.496Z,99874.34
2023-05-10T13:38:03.885Z,99879.88
2023-05-10T13:40:32.297Z,99877.41
2023-05-10T13:43:01.509Z,99886.81
2023-05-10T13:45:31.379Z,99875.78
2023-05-10T13:48:08.403Z,99875.88
2023-05-10T13:50:36.763Z,99880.34
2023-05-10T13:53:04.918Z,99874.66
2023-05-10T13:55:34.576Z,99859.66
2023-05-10T13:58:04.151Z,99862.91
2023-05-10T14:00:34.766Z,99860.66
2023-05-10T14:03:15.672Z,99866.69
2023-05-10T14:05:46.939Z,99845.09
2023-05-10T14:08:15.832Z,99863.03
2023-05-10T14:10:44.338Z,99867.94
2023-05-10T14:13:14.768Z,99859.63
2023-05-10T14:15:43.727Z,99860.50
2023-05-10T14:18:14.193Z,99867.66
2023-05-10T14:20:44.353Z,99863.94
2023-05-10T14:23:13.603Z,99860.31
2023-05-10T14:25:42.756Z,99865.72
2023-05-10T14:28:13.172Z,99872.38
2023-05-10T14:30:42.521Z,99863.59
2023-05-10T14:33:12.548Z,99866.19
2023-05-10T14:35:42.844Z,99863.78
2023-05-10T14:38:11.796Z,99860.34
2023-05-10T14:40:40.152Z,99860.00
2023-05-10T14:43:08.561Z,99857.75
2023-05-10T14:45:37.021Z,99850.88
2023-05-10T14:48:05.677Z,99858.81
2023-05-10T14:50:36.650Z,99847.91
2023-05-10T14:53:06.651Z,99850.91
2023-05-10T14:55:37.931Z,99861.41
2023-05-10T14:58:07.185Z,99846.81
2023-05-10T15:00:36.424Z,99858.50
2023-05-10T15:03:09.612Z,99855.19
2023-05-10T15:05:38.789Z,99851.75
2023-05-10T15:08:08.196Z,99842.78
2023-05-10T15:10:36.570Z,99851.56
2023-05-10T15:13:07.242Z,99845.91
2023-05-10T15:15:38.546Z,99850.59
2023-05-10T15:18:11.428Z,99846.13
2023-05-10T15:20:40.978Z,99845.16
2023-05-10T15:23:11.336Z,99840.22
2023-05-10T15:25:41.592Z,99841.47
2023-05-10T15:28:11.234Z,99856.25
2023-05-10T15:30:41.513Z,99846.34
2023-05-10T15:33:14.431Z,99846.75
2023-05-10T15:35:44.806Z,99852.84
2023-05-10T15:38:14.761Z,99859.22
2023-05-10T15:40:43.459Z,99861.44
2023-05-10T15:43:11.563Z,99858.84
2023-05-10T15:45:40.650Z,99858.44
2023-05-10T15:48:08.735Z,99872.84
2023-05-10T15:50:36.752Z,99870.72
2023-05-10T15:55:50.562Z,99885.06
2023-05-10T15:58:20.214Z,99881.41
2023-05-10T16:00:48.352Z,99880.97
2023-05-10T16:03:19.175Z,99890.81
2023-05-10T16:05:47.687Z,99890.16
2023-05-10T16:08:17.866Z,99889.66
2023-05-10T16:10:46.985Z,99895.97
2023-05-10T16:13:19.363Z,99891.19
2023-05-10T16:15:48.510Z,99906.03
2023-05-10T16:18:18.959Z,99901.09
2023-05-10T16:20:47.395Z,99883.41
2023-05-10T16:23:16.339Z,99899.72
2023-05-10T16:25:44.225Z,99897.50
2023-05-10T16:28:20.984Z,99907.50
2023-05-10T16:30:52.067Z,99903.47
2023-05-10T16:33:19.932Z,99908.91
2023-05-10T16:35:47.806Z,99899.41
2023-05-10T16:38:16.666Z,99912.63
2023-05-10T16:40:44.890Z,99905.41
2023-05-10T16:43:15.550Z,99919.06
2023-05-10T16:45:45.336Z,99912.78
2023-05-10T16:48:16.383Z,99895.91
2023-05-10T16:50:47.801Z,99906.59
2023-05-10T16:53:18.402Z,99907.38
2023-05-10T16:55:47.987Z,99914.88
2023-05-10T16:58:18.727Z,99922.09
2023-05-10T17:00:48.773Z,99921.06
2023-05-10T17:03:18.807Z,99921.53
2023-05-10T17:05:47.017Z,99920.63
2023-05-10T17:08:20.906Z,99911.03
2023-05-10T17:10:49.674Z,99924.00
2023-05-10T17:13:19.773Z,99909.34
2023-05-10T17:15:49.656Z,99919.28
2023-05-10T17:18:23.471Z,99923.81
2023-05-10T17:20:55.319Z,99926.91
2023-05-10T17:23:25.433Z,99904.06
2023-05-10T17:25:53.745Z,99923.50
2023-05-10T17:28:22.907Z,99930.69
2023-05-10T17:30:59.538Z,99925.78
2023-05-10T17:33:29.149Z,99925.78
2023-05-10T17:35:57.411Z,99937.94
2023-05-10T17:38:25.798Z,99935.22
2023-05-10T17:40:54.076Z,99938.25
2023-05-10T17:43:23.508Z,99936.38
2023-05-10T17:45:53.250Z,99937.13
2023-05-10T17:48:22.999Z,99935.25
2023-05-10T17:50:54.790Z,99942.06
2023-05-10T17:53:26.582Z,99939.34
2023-05-10T17:55:59.347Z,99945.13
2023-05-10T17:58:27.993Z,99943.50
2023-05-10T18:00:58.393Z,99947.38
2023-05-10T18:03:35.948Z,99944.34
2023-05-10T18:06:07.974Z,99948.25
2023-05-10T18:08:38.543Z,99950.75
2023-05-10T18:11:08.860Z,99944.16
2023-05-10T18:13:36.903Z,99940.06
2023-05-10T18:16:08.797Z,99952.13
2023-05-10T18:18:43.568Z,99953.78
2023-05-10T18:21:14.589Z,99959.56
2023-05-10T18:23:43.491Z,99953.28
2023-05-10T18:26:16.177Z,99953.72
2023-05-10T18:29:01.498Z,99951.34
2023-05-10T18:31:32.099Z,99965.63
2023-05-10T18:34:05.868Z,99949.38
2023-05-10T18:36:33.978Z,99956.84
2023-05-10T18:39:02.329Z,99960.97
2023-05-10T18:41:31.907Z,99964.25
2023-05-10T18:44:00.750Z,99966.44
2023-05-10T18:46:30.557Z,99968.34
2023-05-10T18:48:58.604Z,99969.16
2023-05-10T18:51:31.576Z,99961.50
2023-05-10T18:53:59.487Z,99983.72
2023-05-10T18:56:27.742Z,99979.31
2023-05-10T18:58:57.691Z,99982.78
2023-05-10T19:01:27.138Z,99971.38
2023-05-10T19:03:55.686Z,99965.47
2023-05-10T19:06:25.195Z,99986.28
2023-05-10T19:08:57.644Z,99974.19
2023-05-10T19:11:26.320Z,99973.09
2023-05-10T19:13:55.052Z,99986.75
2023-05-10T19:16:28.869Z,99985.34
2023-05-10T19:19:01.917Z,99983.19
2023-05-10T19:21:34.252Z,99975.75
2023-05-10T19:24:04.118Z,99986.06
2023-05-10T19:26:32.276Z,99965.81
2023-05-10T19:29:04.836Z,99992.88
2023-05-10T19:31:37.624Z,99992.84
2023-05-10T19:34:09.252Z,99994.41
2023-05-10T19:36:37.703Z,99997.34
2023-05-10T19:39:16.297Z,99999.31
2023-05-10T19:41:45.738Z,100002.19
2023-05-10T19:44:17.444Z,100007.00
2023-05-10T19:46:45.835Z,99994.19
2023-05-10T19:49:14.630Z,99993.97
2023-05-10T19:51:42.811Z,100018.28
2023-05-10T19:54:17.273Z,100025.91
2023-05-10T19:56:46.454Z,100023.13
2023-05-10T19:59:20.660Z,100023.13
2023-05-10T20:01:50.164Z,100026.03
2023-05-10T20:04:17.984Z,100023.50
2023-05-10T20:06:50.910Z,100026.94
2023-05-10T20:09:21.818Z,100041.34
2023-05-10T20:11:54.233Z,100038.69
2023-05-10T20:14:22.715Z,100040.84
2023-05-10T20:16:50.918Z,100034.94
2023-05-10T20:19:19.529Z,100036.59
2023-05-10T20:21:48.345Z,100030.13
2023-05-10T20:24:21.008Z,100036.22
2023-05-10T20:26:54.010Z,100044.59
2023-05-10T20:29:22.340Z,100045.06
2023-05-10T20:31:52.811Z,100042.50
2023-05-10T20:34:23.215Z,100007.81
2023-05-10T20:36:52.104Z,100046.97
2023-05-10T20:39:24.917Z,100048.09
2023-05-10T20:41:56.045Z,100027.22
2023-05-10T20:44:24.209Z,100050.94
2023-05-10T20:47:08.786Z,100053.63
2023-05-10T20:49:37.920Z,100052.44
2023-05-10T20:52:06.649Z,100039.91
2023-05-10T20:54:34.902Z,100025.84
2023-05-10T20:57:14.693Z,100036.84
2023-05-10T20:59:44.427Z,100029.03
2023-05-10T21:02:13.895Z,100045.72
2023-05-10T21:04:42.218Z,100034.38
2023-05-10T21:07:10.363Z,100042.59
2023-05-10T21:09:38.546Z,100039.50
2023-05-10T21:12:11.287Z,100031.94
2023-05-10T21:14:39.168Z,100045.50
2023-05-10T21:17:09.163Z,100045.69
2023-05-10T21:19:42.379Z,100042.44
2023-05-10T21:22:11.250Z,100049.25
2023-05-10T21:24:39.318Z,100050.56
2023-05-10T21:27:09.108Z,100053.97
2023-05-10T21:29:44.550Z,100052.63
2023-05-10T21:32:14.259Z,100043.91
2023-05-10T21:34:44.062Z,100050.72
2023-05-10T21:37:12.256Z,100051.84
2023-05-10T21:39:40.525Z,100016.97
2023-05-10T21:42:10.760Z,100042.00
2023-05-10T21:44:39.888Z,100017.47
2023-05-10T21:47:13.903Z,100035.25
2023-05-10T21:49:43.003Z,100038.66
2023-05-10T21:52:11.996Z,100044.03
2023-05-10T21:54:42.806Z,100048.75
2023-05-10T21:57:12.241Z,100038.88
2023-05-10T21:59:44.435Z,99999.38
2023-05-10T22:02:13.142Z,100035.56
2023-05-10T22:04:42.984Z,100048.72
2023-05-10T22:07:13.034Z,100041.84
2023-05-10T22:09:43.412Z,100039.22
2023-05-10T22:12:15.836Z,100045.22
2023-05-10T22:14:44.494Z,100047.03
2023-05-10T22:17:14.344Z,100050.91
2023-05-10T22:19:42.454Z,100043.84
2023-05-10T22:22:13.255Z,100044.63
2023-05-10T22:24:42.504Z,100046.88
2023-05-10T22:27:12.281Z,100039.25
2023-05-10T22:29:44.298Z,100052.09
2023-05-10T22:32:15.219Z,100052.03
2023-05-10T22:34:46.288Z,100052.03
2023-05-10T22:37:17.848Z,100048.47
2023-05-10T22:39:55.162Z,100050.00
2023-05-10T22:42:23.155Z,100047.88
2023-05-10T22:45:01.509Z,100055.41
2023-05-10T22:47:33.840Z,100050.00
2023-05-10T22:50:05.204Z,100041.06
2023-05-10T22:52:36.133Z,100052.16
2023-05-10T22:55:06.314Z,100049.75
2023-05-10T22:57:36.226Z,100047.53
2023-05-10T23:00:14.715Z,100059.53
2023-05-10T23:02:43.948Z,100049.94
2023-05-10T23:05:11.950Z,100053.34
2023-05-10T23:07:40.625Z,100062.28
2023-05-10T23:10:19.732Z,100058.50
2023-05-10T23:12:47.942Z,100060.03
2023-05-10T23:15:19.385Z,100071.75
2023-05-10T23:17:49.289Z,100074.31
2023-05-10T23:20:21.496Z,100070.25
2023-05-10T23:22:50.970Z,100051.41
2023-05-10T23:25:21.138Z,100073.03
2023-05-10T23:27:49.377Z,100067.53
2023-05-10T23:30:19.331Z,100072.16
2023-05-10T23:32:48.983Z,100066.56
2023-05-10T23:35:18.568Z,100065.75
2023-05-10T23:37:46.489Z,100054.84
2023-05-10T23:40:16.619Z,100065.16
2023-05-10T23:42:48.884Z,100066.63
2023-05-10T23:45:21.370Z,100066.00
2023-05-10T23:47:51.963Z,100066.97
2023-05-10T23:50:23.959Z,100059.53
2023-05-10T23:52:53.548Z,100053.13
2023-05-10T23:55:23.948Z,100065.69
2023-05-10T23:57:58.863Z,100055.66
